createdAt,value
2023-02-14T00:00:02.625Z,8.90
2023-02-14T00:02:49.306Z,7.87
2023-02-14T00:05:36.219Z,8.70
2023-02-14T00:08:24.049Z,9.23
2023-02-14T00:11:10.820Z,8.77
2023-02-14T00:14:15.179Z,8.87
2023-02-14T00:17:02.442Z,8.03
2023-02-14T00:19:48.796Z,7.83
2023-02-14T00:22:35.219Z,7.40
2023-02-14T00:25:23.469Z,7.30
2023-02-14T00:28:10.086Z,7.13
2023-02-14T00:30:58.714Z,7.80
2023-02-14T00:33:45.702Z,7.27
2023-02-14T00:36:32.107Z,7.77
2023-02-14T00:39:21.686Z,6.83
2023-02-14T00:42:09.746Z,7.20
2023-02-14T00:44:56.481Z,6.83
2023-02-14T00:47:42.912Z,7.20
2023-02-14T00:50:29.473Z,7.80
2023-02-14T00:53:16.199Z,7.53
2023-02-14T00:56:02.728Z,7.20
2023-02-14T00:58:51.134Z,6.60
2023-02-14T01:01:37.845Z,6.57
2023-02-14T01:04:24.321Z,6.30
2023-02-14T01:07:10.677Z,6.57
2023-02-14T01:09:57.229Z,4.93
2023-02-14T01:12:43.926Z,5.70
2023-02-14T01:15:32.559Z,5.03
2023-02-14T01:18:20.555Z,5.03
2023-02-14T01:21:15.826Z,4.07
2023-02-14T01:24:04.228Z,4.27
2023-02-14T01:26:50.970Z,3.57
2023-02-14T01:29:37.580Z,3.80
2023-02-14T01:32:25.515Z,4.03
2023-02-14T01:35:12.517Z,3.77
2023-02-14T01:37:58.921Z,4.30
2023-02-14T01:40:45.528Z,4.60
2023-02-14T01:43:32.285Z,6.53
2023-02-14T01:46:18.698Z,6.43
2023-02-14T01:49:10.449Z,9.37
2023-02-14T01:52:03.883Z,8.33
2023-02-14T01:54:55.373Z,8.87
2023-02-14T01:57:47.919Z,7.17
2023-02-14T02:00:52.228Z,7.47
2023-02-14T02:03:43.498Z,7.37
2023-02-14T02:06:37.083Z,7.57
2023-02-14T02:09:29.883Z,7.30
2023-02-14T02:12:16.683Z,7.40
2023-02-14T02:15:05.026Z,6.57
2023-02-14T02:18:03.226Z,6.20
2023-02-14T02:21:12.899Z,6.37
2023-02-14T02:24:13.044Z,5.50
2023-02-14T02:27:26.125Z,6.10
2023-02-14T02:30:46.119Z,6.20
2023-02-14T02:34:04.068Z,6.07
2023-02-14T02:37:13.019Z,5.13
2023-02-14T02:40:09.741Z,5.63
2023-02-14T02:43:07.349Z,6.00
2023-02-14T02:46:23.017Z,5.87
2023-02-14T02:49:37.432Z,5.40
2023-02-14T02:52:49.748Z,5.90
2023-02-14T02:56:02.033Z,6.10
2023-02-14T02:58:53.920Z,7.13
2023-02-14T03:01:43.226Z,7.63
2023-02-14T03:04:47.619Z,7.60
2023-02-14T03:07:39.374Z,8.63
2023-02-14T03:10:29.222Z,8.13
2023-02-14T03:13:32.438Z,8.13
2023-02-14T03:16:31.528Z,8.37
2023-02-14T03:19:31.601Z,8.00
2023-02-14T03:22:26.811Z,7.10
2023-02-14T03:25:25.432Z,7.93
2023-02-14T03:28:17.811Z,8.80
2023-02-14T03:31:09.556Z,7.47
2023-02-14T03:34:02.600Z,7.37
2023-02-14T03:36:55.246Z,7.17
2023-02-14T03:39:50.618Z,7.00
2023-02-14T03:42:44.492Z,7.63
2023-02-14T03:45:36.022Z,7.60
2023-02-14T03:48:27.400Z,8.07
2023-02-14T03:51:16.233Z,7.77
2023-02-14T03:54:05.794Z,7.67
2023-02-14T03:56:57.274Z,7.03
2023-02-14T03:59:45.677Z,6.63
2023-02-14T04:02:36.988Z,8.07
2023-02-14T04:05:26.986Z,6.20
2023-02-14T04:08:21.371Z,6.27
2023-02-14T04:11:08.319Z,6.87
2023-02-14T04:13:54.887Z,6.60
2023-02-14T04:16:56.668Z,6.47
2023-02-14T04:19:43.077Z,5.50
2023-02-14T04:22:29.395Z,6.00
2023-02-14T04:25:16.381Z,5.70
2023-02-14T04:28:02.835Z,6.17
2023-02-14T04:30:49.367Z,6.70
2023-02-14T04:33:39.320Z,7.77
2023-02-14T04:36:25.957Z,6.87
2023-02-14T04:39:12.264Z,6.57
2023-02-14T04:41:58.764Z,6.30
2023-02-14T04:44:45.246Z,6.87
2023-02-14T04:47:31.547Z,7.07
2023-02-14T04:50:19.542Z,6.43
2023-02-14T04:53:06.226Z,5.83
2023-02-14T04:55:52.884Z,5.93
2023-02-14T04:58:39.636Z,6.03
2023-02-14T05:01:26.100Z,5.60
2023-02-14T05:04:12.677Z,5.63
2023-02-14T05:07:00.682Z,6.40
2023-02-14T05:09:47.179Z,5.63
2023-02-14T05:12:33.724Z,6.67
2023-02-14T05:15:20.308Z,6.00
2023-02-14T05:18:06.886Z,6.37
2023-02-14T05:20:54.303Z,6.07
2023-02-14T05:23:42.505Z,6.87
2023-02-14T05:26:30.118Z,5.43
2023-02-14T05:29:16.754Z,5.60
2023-02-14T05:32:03.325Z,6.00
2023-02-14T05:34:49.641Z,5.27
2023-02-14T05:37:36.064Z,5.70
2023-02-14T05:40:26.801Z,6.43
2023-02-14T05:43:13.606Z,6.03
2023-02-14T05:46:00.614Z,5.87
2023-02-14T05:48:47.358Z,5.77
2023-02-14T05:51:33.710Z,5.33
2023-02-14T05:54:20.199Z,6.40
2023-02-14T05:57:08.158Z,6.53
2023-02-14T05:59:54.806Z,6.30
2023-02-14T06:02:41.468Z,6.30
2023-02-14T06:05:28.348Z,6.47
2023-02-14T06:08:15.018Z,6.77
2023-02-14T06:11:01.830Z,6.33
2023-02-14T06:13:49.955Z,6.43
2023-02-14T06:16:36.564Z,6.33
2023-02-14T06:19:23.419Z,6.13
2023-02-14T06:22:10.413Z,6.87
2023-02-14T06:24:56.952Z,6.30
2023-02-14T06:27:44.479Z,5.67
2023-02-14T06:30:32.771Z,5.40
2023-02-14T06:33:19.536Z,5.67
2023-02-14T06:36:06.167Z,5.50
2023-02-14T06:38:52.562Z,5.93
2023-02-14T06:41:39.177Z,5.57
2023-02-14T06:44:25.592Z,5.40
2023-02-14T06:47:13.459Z,5.37
2023-02-14T06:50:01.574Z,5.53
2023-02-14T06:52:48.393Z,5.13
2023-02-14T06:55:34.856Z,5.57
2023-02-14T06:58:21.689Z,5.17
2023-02-14T07:01:08.396Z,6.17
2023-02-14T07:03:56.662Z,10.33
2023-02-14T07:06:42.999Z,9.43
2023-02-14T07:09:29.343Z,8.70
2023-02-14T07:12:15.777Z,6.90
2023-02-14T07:15:02.133Z,6.10
2023-02-14T07:17:48.530Z,6.70
2023-02-14T07:20:36.378Z,7.23
2023-02-14T07:23:22.793Z,6.73
2023-02-14T07:26:09.326Z,7.47
2023-02-14T07:28:55.760Z,7.27
2023-02-14T07:31:42.310Z,7.03
2023-02-14T07:34:29.167Z,7.00
2023-02-14T07:37:17.742Z,7.40
2023-02-14T07:40:05.335Z,7.67
2023-02-14T07:42:54.522Z,6.97
2023-02-14T07:45:41.151Z,8.27
2023-02-14T07:48:30.251Z,9.17
2023-02-14T07:51:17.544Z,9.70
2023-02-14T07:54:05.521Z,9.80
2023-02-14T07:56:52.182Z,8.40
2023-02-14T07:59:38.618Z,8.83
2023-02-14T08:02:25.236Z,7.47
2023-02-14T08:05:11.866Z,6.77
2023-02-14T08:07:58.773Z,6.50
2023-02-14T08:10:46.476Z,7.00
2023-02-14T08:13:32.868Z,6.53
2023-02-14T08:16:19.181Z,7.13
2023-02-14T08:19:06.266Z,6.97
2023-02-14T08:21:53.055Z,7.67
2023-02-14T08:24:39.523Z,8.87
2023-02-14T08:27:27.089Z,8.37
2023-02-14T08:30:14.469Z,8.17
2023-02-14T08:33:01.346Z,7.13
2023-02-14T08:35:48.104Z,7.47
2023-02-14T08:38:34.593Z,7.13
2023-02-14T08:41:21.519Z,7.47
2023-02-14T08:44:09.806Z,7.03
2023-02-14T08:46:56.586Z,7.50
2023-02-14T08:49:43.350Z,6.63
2023-02-14T08:52:30.899Z,7.47
2023-02-14T08:55:17.664Z,7.20
2023-02-14T08:58:04.209Z,7.50
2023-02-14T09:00:52.466Z,7.50
2023-02-14T09:03:39.618Z,7.27
2023-02-14T09:06:26.583Z,8.13
2023-02-14T09:09:12.983Z,7.53
2023-02-14T09:11:59.382Z,8.00
2023-02-14T09:14:46.209Z,7.97
2023-02-14T09:17:34.302Z,8.27
2023-02-14T09:20:21.078Z,7.77
2023-02-14T09:23:07.702Z,8.57
2023-02-14T09:26:01.541Z,8.53
2023-02-14T09:28:48.370Z,8.00
2023-02-14T09:31:35.003Z,8.77
2023-02-14T09:34:41.402Z,7.37
2023-02-14T09:37:46.101Z,7.80
2023-02-14T09:40:33.834Z,8.37
2023-02-14T09:43:30.254Z,7.73
2023-02-14T09:46:18.864Z,7.87
2023-02-14T09:49:05.636Z,7.43
2023-02-14T09:51:54.391Z,8.20
2023-02-14T09:54:43.738Z,7.83
2023-02-14T09:57:40.117Z,8.13
2023-02-14T10:00:38.292Z,7.70
2023-02-14T10:03:49.166Z,7.57
2023-02-14T10:06:49.116Z,9.10
2023-02-14T10:09:50.671Z,9.23
2023-02-14T10:12:41.189Z,7.57
2023-02-14T10:15:31.470Z,7.77
2023-02-14T10:18:22.399Z,7.40
2023-02-14T10:21:14.110Z,8.17
2023-02-14T10:24:05.269Z,7.33
2023-02-14T10:26:57.760Z,7.43
2023-02-14T10:29:44.450Z,7.43
2023-02-14T10:32:37.694Z,7.57
2023-02-14T10:35:32.529Z,7.43
2023-02-14T10:38:34.685Z,7.83
2023-02-14T10:41:36.577Z,7.63
2023-02-14T10:44:38.697Z,7.17
2023-02-14T10:47:37.605Z,6.50
2023-02-14T10:50:31.926Z,7.50
2023-02-14T10:53:24.726Z,7.57
2023-02-14T10:56:20.059Z,6.80
2023-02-14T10:59:17.694Z,7.13
2023-02-14T11:02:06.750Z,6.70
2023-02-14T11:04:54.296Z,7.37
2023-02-14T11:07:40.638Z,7.27
2023-02-14T11:10:31.655Z,7.13
2023-02-14T11:13:33.621Z,7.50
2023-02-14T11:16:30.759Z,7.37
2023-02-14T11:19:24.967Z,7.30
2023-02-14T11:22:11.477Z,7.00
2023-02-14T11:25:05.450Z,6.43
2023-02-14T11:27:59.516Z,6.00
2023-02-14T11:30:49.266Z,6.27
2023-02-14T11:33:39.736Z,6.70
2023-02-14T11:36:28.173Z,6.80
2023-02-14T11:39:29.374Z,6.90
2023-02-14T11:42:32.573Z,6.17
2023-02-14T11:45:34.881Z,6.67
2023-02-14T11:48:36.750Z,6.60
2023-02-14T11:51:31.709Z,6.47
2023-02-14T11:54:32.740Z,5.80
2023-02-14T11:57:24.429Z,6.13
2023-02-14T12:00:17.185Z,6.37
2023-02-14T12:03:07.281Z,7.20
2023-02-14T12:06:00.448Z,7.47
2023-02-14T12:08:48.350Z,6.97
2023-02-14T12:11:35.317Z,7.47
2023-02-14T12:14:23.481Z,8.40
2023-02-14T12:17:22.314Z,6.20
2023-02-14T12:20:13.174Z,9.43
2023-02-14T12:23:04.678Z,7.33
2023-02-14T12:25:59.896Z,7.47
2023-02-14T12:28:51.020Z,6.77
2023-02-14T12:31:37.993Z,7.20
2023-02-14T12:34:24.739Z,8.23
2023-02-14T12:37:36.644Z,7.50
2023-02-14T12:40:31.622Z,7.30
2023-02-14T12:43:50.702Z,6.93
2023-02-14T12:46:58.846Z,6.13
2023-02-14T12:50:10.842Z,6.97
2023-02-14T12:53:19.545Z,7.00
2023-02-14T12:56:16.175Z,6.47
2023-02-14T12:59:20.838Z,5.73
2023-02-14T13:02:56.599Z,6.03
2023-02-14T13:05:51.135Z,6.00
2023-02-14T13:09:01.230Z,6.03
2023-02-14T13:11:58.089Z,6.70
2023-02-14T13:14:56.072Z,6.37
2023-02-14T13:17:47.111Z,5.83
2023-02-14T13:20:41.214Z,6.97
2023-02-14T13:23:31.647Z,5.40
2023-02-14T13:26:21.279Z,5.30
2023-02-14T13:29:11.511Z,5.60
2023-02-14T13:32:03.272Z,4.70
2023-02-14T13:34:50.848Z,4.93
2023-02-14T13:37:38.400Z,5.37
2023-02-14T13:40:26.816Z,5.30
2023-02-14T13:43:13.269Z,5.80
2023-02-14T13:45:59.725Z,5.43
2023-02-14T13:48:58.174Z,5.53
2023-02-14T13:51:46.618Z,4.80
2023-02-14T13:54:37.112Z,5.40
2023-02-14T13:57:31.686Z,4.77
2023-02-14T14:00:41.061Z,5.93
2023-02-14T14:03:59.574Z,6.20
2023-02-14T14:07:32.235Z,5.67
2023-02-14T14:10:45.004Z,6.47
2023-02-14T14:13:57.293Z,6.00
2023-02-14T14:16:58.215Z,6.20
2023-02-14T14:19:47.160Z,6.60
2023-02-14T14:22:47.195Z,6.50
2023-02-14T14:25:37.300Z,6.30
2023-02-14T14:28:28.042Z,6.10
2023-02-14T14:31:15.132Z,6.03
2023-02-14T14:34:02.393Z,6.77
2023-02-14T14:36:49.523Z,6.70
2023-02-14T14:39:39.878Z,6.30
2023-02-14T14:42:28.951Z,6.40
2023-02-14T14:45:24.922Z,5.13
2023-02-14T14:48:14.485Z,6.30
2023-02-14T14:51:01.818Z,5.60
2023-02-14T14:53:52.359Z,6.23
2023-02-14T14:56:49.897Z,5.57
2023-02-14T14:59:39.656Z,6.03
2023-02-14T15:02:30.387Z,6.23
2023-02-14T15:05:26.653Z,5.83
2023-02-14T15:08:31.890Z,6.43
2023-02-14T15:11:35.969Z,5.80
2023-02-14T15:14:25.343Z,5.33
2023-02-14T15:17:19.440Z,5.03
2023-02-14T15:20:11.716Z,5.43
2023-02-14T15:22:58.558Z,6.00
2023-02-14T15:25:47.193Z,5.50
2023-02-14T15:28:38.541Z,5.17
2023-02-14T15:31:29.499Z,6.00
2023-02-14T15:34:16.557Z,5.87
2023-02-14T15:37:07.055Z,5.33
2023-02-14T15:39:56.531Z,5.80
2023-02-14T15:42:46.075Z,4.87
2023-02-14T15:45:32.838Z,5.57
2023-02-14T15:48:22.116Z,4.97
2023-02-14T15:51:18.060Z,4.97
2023-02-14T15:54:08.832Z,4.93
2023-02-14T15:56:56.735Z,4.43
2023-02-14T15:59:44.208Z,4.70
2023-02-14T16:02:36.013Z,4.83
2023-02-14T16:05:25.154Z,4.17
2023-02-14T16:08:29.504Z,4.60
2023-02-14T16:11:29.807Z,4.73
2023-02-14T16:14:37.963Z,5.20
2023-02-14T16:17:33.646Z,5.20
2023-02-14T16:20:22.805Z,4.50
2023-02-14T16:23:26.769Z,4.57
2023-02-14T16:26:14.601Z,5.00
2023-02-14T16:29:05.483Z,5.13
2023-02-14T16:32:15.322Z,4.57
2023-02-14T16:35:01.829Z,5.07
2023-02-14T16:37:50.753Z,5.20
2023-02-14T16:40:37.525Z,5.97
2023-02-14T16:43:24.069Z,5.17
2023-02-14T16:46:13.511Z,5.40
2023-02-14T16:49:00.596Z,5.80
2023-02-14T16:51:48.668Z,5.90
2023-02-14T16:54:35.047Z,5.70
2023-02-14T16:57:25.827Z,5.40
2023-02-14T17:00:15.559Z,5.23
2023-02-14T17:03:11.520Z,5.63
2023-02-14T17:06:00.644Z,5.67
2023-02-14T17:08:49.539Z,5.70
2023-02-14T17:11:39.370Z,6.07
2023-02-14T17:14:30.673Z,6.13
2023-02-14T17:17:17.980Z,6.33
2023-02-14T17:20:08.171Z,7.37
2023-02-14T17:22:55.555Z,7.10
2023-02-14T17:25:41.931Z,6.60
2023-02-14T17:28:28.480Z,6.40
2023-02-14T17:31:15.237Z,6.57
2023-02-14T17:34:01.941Z,6.50
2023-02-14T17:36:49.687Z,6.73
2023-02-14T17:39:36.395Z,6.83
2023-02-14T17:42:23.921Z,7.43
2023-02-14T17:45:12.699Z,6.40
2023-02-14T17:47:59.510Z,6.57
2023-02-14T17:50:45.754Z,6.60
2023-02-14T17:53:34.090Z,6.13
2023-02-14T17:56:22.509Z,6.30
2023-02-14T17:59:09.092Z,6.37
2023-02-14T18:01:55.440Z,6.60
2023-02-14T18:04:42.308Z,6.63
2023-02-14T18:07:28.976Z,6.37
2023-02-14T18:10:17.047Z,6.80
2023-02-14T18:13:04.245Z,6.30
2023-02-14T18:15:50.663Z,6.73
2023-02-14T18:18:37.142Z,7.40
2023-02-14T18:21:24.599Z,6.93
2023-02-14T18:24:11.955Z,6.80
2023-02-14T18:26:59.976Z,7.80
2023-02-14T18:29:46.481Z,7.87
2023-02-14T18:32:33.296Z,7.50
2023-02-14T18:35:19.669Z,8.33
2023-02-14T18:38:06.480Z,7.97
2023-02-14T18:40:53.146Z,8.87
2023-02-14T18:43:41.229Z,8.30
2023-02-14T18:46:30.618Z,7.57
2023-02-14T18:49:17.083Z,9.13
2023-02-14T18:52:04.954Z,9.57
2023-02-14T18:54:51.330Z,10.37
2023-02-14T18:57:38.280Z,10.23
2023-02-14T19:00:27.182Z,10.80
2023-02-14T19:03:13.776Z,10.30
2023-02-14T19:06:00.729Z,11.43
2023-02-14T19:08:48.102Z,13.10
2023-02-14T19:11:34.694Z,12.53
2023-02-14T19:14:21.454Z,14.07
2023-02-14T19:17:09.213Z,15.63
2023-02-14T19:19:56.465Z,15.53
2023-02-14T19:22:43.081Z,15.57
2023-02-14T19:25:32.600Z,16.63
2023-02-14T19:28:19.255Z,15.97
2023-02-14T19:31:05.606Z,15.47
2023-02-14T19:33:53.519Z,14.00
2023-02-14T19:36:40.209Z,14.10
2023-02-14T19:39:29.475Z,12.73
2023-02-14T19:42:16.118Z,12.70
2023-02-14T19:45:02.362Z,11.73
2023-02-14T19:47:49.476Z,10.50
2023-02-14T19:50:39.583Z,10.63
2023-02-14T19:53:26.038Z,9.90
2023-02-14T19:56:12.969Z,9.67
2023-02-14T19:58:59.930Z,10.03
2023-02-14T20:01:48.283Z,10.10
2023-02-14T20:04:35.119Z,8.20
2023-02-14T20:07:23.433Z,8.80
2023-02-14T20:10:10.723Z,10.17
2023-02-14T20:12:57.196Z,8.53
2023-02-14T20:15:45.290Z,8.70
2023-02-14T20:18:31.878Z,9.03
2023-02-14T20:21:19.271Z,8.53
2023-02-14T20:24:08.404Z,8.93
2023-02-14T20:26:55.391Z,7.33
2023-02-14T20:29:43.281Z,7.90
2023-02-14T20:32:29.853Z,7.63
2023-02-14T20:35:16.337Z,8.03
2023-02-14T20:38:07.401Z,7.93
2023-02-14T20:40:55.399Z,7.87
2023-02-14T20:43:41.815Z,7.83
2023-02-14T20:46:28.970Z,7.97
2023-02-14T20:49:15.857Z,7.00
2023-02-14T20:52:02.479Z,7.73
2023-02-14T20:54:49.297Z,7.03
2023-02-14T20:57:37.123Z,8.13
2023-02-14T21:00:25.695Z,7.70
2023-02-14T21:03:12.473Z,7.97
2023-02-14T21:05:59.200Z,7.17
2023-02-14T21:08:46.647Z,7.33
2023-02-14T21:11:33.017Z,8.13
2023-02-14T21:14:21.382Z,7.33
2023-02-14T21:17:08.430Z,8.37
2023-02-14T21:19:54.862Z,8.17
2023-02-14T21:22:41.670Z,7.73
2023-02-14T21:25:28.628Z,8.03
2023-02-14T21:28:15.143Z,8.23
2023-02-14T21:31:08.164Z,8.67
2023-02-14T21:33:56.813Z,8.43
2023-02-14T21:36:43.482Z,9.43
2023-02-14T21:39:31.085Z,7.70
2023-02-14T21:42:18.654Z,8.80
2023-02-14T21:45:23.383Z,8.10
2023-02-14T21:48:28.662Z,7.43
2023-02-14T21:51:15.502Z,7.63
2023-02-14T21:54:02.261Z,7.53
2023-02-14T21:56:50.261Z,7.83
2023-02-14T21:59:36.667Z,7.40
2023-02-14T22:02:22.943Z,7.63
2023-02-14T22:05:10.857Z,7.30
2023-02-14T22:07:57.265Z,7.47
2023-02-14T22:10:43.716Z,7.10
2023-02-14T22:13:30.134Z,6.33
2023-02-14T22:16:18.930Z,7.60
2023-02-14T22:19:05.838Z,7.07
2023-02-14T22:21:53.800Z,7.20
2023-02-14T22:24:40.317Z,6.37
2023-02-14T22:27:26.746Z,7.53
2023-02-14T22:30:13.671Z,7.13
2023-02-14T22:33:00.132Z,6.83
2023-02-14T22:35:47.149Z,6.67
2023-02-14T22:38:35.584Z,7.23
2023-02-14T22:41:24.009Z,6.33
2023-02-14T22:44:11.413Z,7.40
2023-02-14T22:46:58.024Z,7.60
2023-02-14T22:49:44.423Z,7.83
2023-02-14T22:52:30.905Z,7.13
2023-02-14T22:55:19.215Z,7.13
2023-02-14T22:58:05.664Z,7.00
2023-02-14T23:00:52.045Z,7.10
2023-02-14T23:03:38.491Z,7.23
2023-02-14T23:06:25.569Z,7.73
2023-02-14T23:09:13.199Z,7.80
2023-02-14T23:12:01.008Z,6.90
2023-02-14T23:15:05.200Z,7.53
2023-02-14T23:18:09.621Z,8.67
2023-02-14T23:21:13.699Z,8.27
2023-02-14T23:24:00.426Z,8.37
2023-02-14T23:26:46.818Z,8.67
2023-02-14T23:29:34.740Z,8.40
2023-02-14T23:32:21.409Z,9.07
2023-02-14T23:35:08.330Z,8.73
2023-02-14T23:37:54.945Z,8.57
2023-02-14T23:40:55.404Z,8.80
2023-02-14T23:43:42.010Z,8.27
2023-02-14T23:46:29.804Z,7.90
2023-02-14T23:49:17.018Z,8.43
2023-02-14T23:52:07.475Z,8.90
2023-02-14T23:54:53.879Z,8.77
2023-02-14T23:57:40.772Z,8.87
